sensor_id;sensor_type;location;lat;lon;timestamp;pressure;altitude;pressure_sealevel;temperature;humidity
14612;BME280;7392;52.078;11.650;2022-08-20T00:02:11;100611.44;;;19.87;100.00
14612;BME280;7392;52.078;11.650;2022-08-20T00:04:40;100619.53;;;19.87;100.00
14612;BME280;7392;52.078;11.650;2022-08-20T00:07:08;100616.91;;;19.85;100.00
14612;BME280;7392;52.078;11.650;2022-08-20T00:09:36;100626.78;;;19.85;100.00
14612;BME280;7392;52.078;11.650;2022-08-20T00:12:04;100628.66;;;19.83;100.00
14612;BME280;7392;52.078;11.650;2022-08-20T00:14:34;100648.66;;;19.77;100.00
14612;BME280;7392;52.078;11.650;2022-08-20T00:17:03;100647.09;;;19.71;100.00
14612;BME280;7392;52.078;11.650;2022-08-20T00:19:31;100645.50;;;19.66;100.00
14612;BME280;7392;52.078;11.650;2022-08-20T00:22:00;100642.06;;;19.62;100.00
14612;BME280;7392;52.078;11.650;2022-08-20T00:24:28;100638.56;;;19.60;100.00
14612;BME280;7392;52.078;11.650;2022-08-20T00:26:56;100622.47;;;19.58;100.00
14612;BME280;7392;52.078;11.650;2022-08-20T00:29:24;100620.63;;;19.59;100.00
14612;BME280;7392;52.078;11.650;2022-08-20T00:31:52;100606.31;;;19.58;100.00
14612;BME280;7392;52.078;11.650;2022-08-20T00:34:20;100600.06;;;19.58;100.00
14612;BME280;7392;52.078;11.650;2022-08-20T00:36:48;100597.34;;;19.58;100.00
14612;BME280;7392;52.078;11.650;2022-08-20T00:39:17;100600.97;;;19.57;100.00
14612;BME280;7392;52.078;11.650;2022-08-20T00:41:45;100595.59;;;19.57;100.00
14612;BME280;7392;52.078;11.650;2022-08-20T00:44:15;100589.34;;;19.56;100.00
14612;BME280;7392;52.078;11.650;2022-08-20T00:46:45;100592.97;;;19.55;100.00
14612;BME280;7392;52.078;11.650;2022-08-20T00:49:16;100598.41;;;19.54;100.00
14612;BME280;7392;52.078;11.650;2022-08-20T00:51:47;100600.34;;;19.50;100.00
14612;BME280;7392;52.078;11.650;2022-08-20T00:54:19;100609.25;;;19.52;100.00
14612;BME280;7392;52.078;11.650;2022-08-20T00:56:53;100604.81;;;19.51;100.00
14612;BME280;7392;52.078;11.650;2022-08-20T00:59:25;100603.94;;;19.51;100.00
14612;BME280;7392;52.078;11.650;2022-08-20T01:01:53;100602.19;;;19.50;100.00
14612;BME280;7392;52.078;11.650;2022-08-20T01:04:23;100598.56;;;19.51;100.00
14612;BME280;7392;52.078;11.650;2022-08-20T01:06:52;100607.56;;;19.50;100.00
14612;BME280;7392;52.078;11.650;2022-08-20T01:09:22;100610.31;;;19.48;100.00
14612;BME280;7392;52.078;11.650;2022-08-20T01:12:12;100620.28;;;19.46;100.00
14612;BME280;7392;52.078;11.650;2022-08-20T01:14:54;100621.22;;;19.45;100.00
14612;BME280;7392;52.078;11.650;2022-08-20T01:17:26;100619.47;;;19.44;100.00
14612;BME280;7392;52.078;11.650;2022-08-20T01:19:58;100623.97;;;19.43;100.00
14612;BME280;7392;52.078;11.650;2022-08-20T01:22:34;100625.78;;;19.43;100.00
14612;BME280;7392;52.078;11.650;2022-08-20T01:25:27;100627.56;;;19.44;100.00
14612;BME280;7392;52.078;11.650;2022-08-20T01:28:00;100622.22;;;19.42;100.00
14612;BME280;7392;52.078;11.650;2022-08-20T01:30:31;100622.28;;;19.41;100.00
14612;BME280;7392;52.078;11.650;2022-08-20T01:33:00;100625.84;;;19.41;100.00
14612;BME280;7392;52.078;11.650;2022-08-20T01:35:28;100623.16;;;19.41;100.00
14612;BME280;7392;52.078;11.650;2022-08-20T01:37:56;100622.28;;;19.41;100.00
14612;BME280;7392;52.078;11.650;2022-08-20T01:40:37;100624.13;;;19.40;100.00
14612;BME280;7392;52.078;11.650;2022-08-20T01:43:12;100622.34;;;19.39;100.00
14612;BME280;7392;52.078;11.650;2022-08-20T01:45:42;100618.78;;;19.39;100.00
14612;BME280;7392;52.078;11.650;2022-08-20T01:48:11;100611.69;;;19.36;100.00
14612;BME280;7392;52.078;11.650;2022-08-20T01:50:43;100620.59;;;19.38;100.00
14612;BME280;7392;52.078;11.650;2022-08-20T01:53:17;100610.78;;;19.37;100.00
14612;BME280;7392;52.078;11.650;2022-08-20T01:55:48;100616.22;;;19.36;100.00
14612;BME280;7392;52.078;11.650;2022-08-20T01:58:18;100616.22;;;19.36;100.00
14612;BME280;7392;52.078;11.650;2022-08-20T02:00:46;100616.22;;;19.36;100.00
14612;BME280;7392;52.078;11.650;2022-08-20T02:03:14;100628.72;;;19.37;100.00
14612;BME280;7392;52.078;11.650;2022-08-20T02:05:41;100623.44;;;19.35;100.00
14612;BME280;7392;52.078;11.650;2022-08-20T02:08:10;100621.66;;;19.34;100.00
14612;BME280;7392;52.078;11.650;2022-08-20T02:10:38;100628.88;;;19.34;100.00
14612;BME280;7392;52.078;11.650;2022-08-20T02:13:07;100619.91;;;19.33;100.00
14612;BME280;7392;52.078;11.650;2022-08-20T02:15:37;100629.78;;;19.33;100.00
14612;BME280;7392;52.078;11.650;2022-08-20T02:18:11;100624.47;;;19.31;100.00
14612;BME280;7392;52.078;11.650;2022-08-20T02:20:40;100629.84;;;19.31;100.00
14612;BME280;7392;52.078;11.650;2022-08-20T02:23:10;100629.00;;;19.31;100.00
14612;BME280;7392;52.078;11.650;2022-08-20T02:25:39;100627.28;;;19.28;100.00
14612;BME280;7392;52.078;11.650;2022-08-20T02:28:10;100623.72;;;19.28;100.00
14612;BME280;7392;52.078;11.650;2022-08-20T02:30:44;100623.72;;;19.28;100.00
14612;BME280;7392;52.078;11.650;2022-08-20T02:33:14;100624.59;;;19.28;100.00
14612;BME280;7392;52.078;11.650;2022-08-20T02:35:44;100635.34;;;19.28;100.00
14612;BME280;7392;52.078;11.650;2022-08-20T02:38:14;100629.09;;;19.28;100.00
14612;BME280;7392;52.078;11.650;2022-08-20T02:40:44;100651.50;;;19.28;100.00
14612;BME280;7392;52.078;11.650;2022-08-20T02:43:14;100645.31;;;19.26;100.00
14612;BME280;7392;52.078;11.650;2022-08-20T02:45:45;100648.00;;;19.26;100.00
14612;BME280;7392;52.078;11.650;2022-08-20T02:48:15;100644.44;;;19.25;100.00
14612;BME280;7392;52.078;11.650;2022-08-20T02:50:52;100640.94;;;19.23;100.00
14612;BME280;7392;52.078;11.650;2022-08-20T02:53:22;100648.13;;;19.23;100.00
14612;BME280;7392;52.078;11.650;2022-08-20T02:55:51;100650.81;;;19.23;100.00
14612;BME280;7392;52.078;11.650;2022-08-20T02:58:20;100642.75;;;19.23;100.00
14612;BME280;7392;52.078;11.650;2022-08-20T03:00:49;100646.38;;;19.22;100.00
14612;BME280;7392;52.078;11.650;2022-08-20T03:03:17;100651.78;;;19.22;100.00
14612;BME280;7392;52.078;11.650;2022-08-20T03:05:49;100656.34;;;19.20;100.00
14612;BME280;7392;52.078;11.650;2022-08-20T03:08:18;100665.28;;;19.20;100.00
14612;BME280;7392;52.078;11.650;2022-08-20T03:10:48;100663.53;;;19.19;100.00
14612;BME280;7392;52.078;11.650;2022-08-20T03:13:17;100653.72;;;19.18;100.00
14612;BME280;7392;52.078;11.650;2022-08-20T03:15:49;100644.78;;;19.16;100.00
14612;BME280;7392;52.078;11.650;2022-08-20T03:18:26;100651.94;;;19.17;100.00
14612;BME280;7392;52.078;11.650;2022-08-20T03:20:54;100656.53;;;19.15;100.00
14612;BME280;7392;52.078;11.650;2022-08-20T03:23:22;100652.06;;;19.14;100.00
14612;BME280;7392;52.078;11.650;2022-08-20T03:25:50;100652.13;;;19.13;100.00
14612;BME280;7392;52.078;11.650;2022-08-20T03:28:18;100653.88;;;19.14;100.00
14612;BME280;7392;52.078;11.650;2022-08-20T03:30:47;100643.16;;;19.12;100.00
14612;BME280;7392;52.078;11.650;2022-08-20T03:33:17;100645.88;;;19.12;100.00
14612;BME280;7392;52.078;11.650;2022-08-20T03:35:45;100649.47;;;19.11;100.00
14612;BME280;7392;52.078;11.650;2022-08-20T03:38:15;100650.38;;;19.12;100.00
14612;BME280;7392;52.078;11.650;2022-08-20T03:40:58;100645.06;;;19.10;100.00
14612;BME280;7392;52.078;11.650;2022-08-20T03:43:26;100642.41;;;19.09;100.00
14612;BME280;7392;52.078;11.650;2022-08-20T03:45:54;100653.19;;;19.09;100.00
14612;BME280;7392;52.078;11.650;2022-08-20T03:48:24;100657.69;;;19.08;100.00
14612;BME280;7392;52.078;11.650;2022-08-20T03:50:52;100656.81;;;19.08;100.00
14612;BME280;7392;52.078;11.650;2022-08-20T03:53:22;100654.16;;;19.06;100.00
14612;BME280;7392;52.078;11.650;2022-08-20T03:55:50;100655.06;;;19.06;100.00
14612;BME280;7392;52.078;11.650;2022-08-20T03:58:28;100650.59;;;19.05;100.00
14612;BME280;7392;52.078;11.650;2022-08-20T04:01:03;100653.31;;;19.05;100.00
14612;BME280;7392;52.078;11.650;2022-08-20T04:03:34;100659.69;;;19.03;100.00
14612;BME280;7392;52.078;11.650;2022-08-20T04:06:02;100648.09;;;19.01;100.00
14612;BME280;7392;52.078;11.650;2022-08-20T04:08:30;100656.22;;;18.99;100.00
14612;BME280;7392;52.078;11.650;2022-08-20T04:10:58;100658.03;;;18.99;100.00
14612;BME280;7392;52.078;11.650;2022-08-20T04:13:29;100652.72;;;18.97;100.00
14612;BME280;7392;52.078;11.650;2022-08-20T04:15:57;100658.09;;;18.97;100.00
14612;BME280;7392;52.078;11.650;2022-08-20T04:18:27;100649.22;;;18.95;100.00
14612;BME280;7392;52.078;11.650;2022-08-20T04:20:56;100653.72;;;18.95;100.00
14612;BME280;7392;52.078;11.650;2022-08-20T04:23:24;100647.53;;;18.93;100.00
14612;BME280;7392;52.078;11.650;2022-08-20T04:25:52;100653.78;;;18.93;100.00
14612;BME280;7392;52.078;11.650;2022-08-20T04:28:23;100653.84;;;18.92;100.00
14612;BME280;7392;52.078;11.650;2022-08-20T04:30:53;100651.19;;;18.90;100.00
14612;BME280;7392;52.078;11.650;2022-08-20T04:33:21;100644.94;;;18.90;100.00
14612;BME280;7392;52.078;11.650;2022-08-20T04:36:03;100645.88;;;18.88;100.00
14612;BME280;7392;52.078;11.650;2022-08-20T04:38:32;100653.06;;;18.88;100.00
14612;BME280;7392;52.078;11.650;2022-08-20T04:41:17;100657.59;;;18.87;100.00
14612;BME280;7392;52.078;11.650;2022-08-20T04:43:50;100655.81;;;18.86;100.00
14612;BME280;7392;52.078;11.650;2022-08-20T04:46:19;100646.88;;;18.86;100.00
14612;BME280;7392;52.078;11.650;2022-08-20T04:48:49;100646.00;;;18.85;100.00
14612;BME280;7392;52.078;11.650;2022-08-20T04:51:18;100651.38;;;18.85;100.00
14612;BME280;7392;52.078;11.650;2022-08-20T04:53:49;100646.88;;;18.86;100.00
14612;BME280;7392;52.078;11.650;2022-08-20T04:56:20;100649.56;;;18.86;100.00
14612;BME280;7392;52.078;11.650;2022-08-20T04:58:50;100653.13;;;18.86;100.00
14612;BME280;7392;52.078;11.650;2022-08-20T05:01:19;100657.66;;;18.86;100.00
14612;BME280;7392;52.078;11.650;2022-08-20T05:03:47;100644.19;;;18.86;100.00
14612;BME280;7392;52.078;11.650;2022-08-20T05:06:17;100654.06;;;18.85;100.00
14612;BME280;7392;52.078;11.650;2022-08-20T05:08:45;100654.06;;;18.85;100.00
14612;BME280;7392;52.078;11.650;2022-08-20T05:11:13;100650.44;;;18.86;100.00
14612;BME280;7392;52.078;11.650;2022-08-20T05:14:03;100649.56;;;18.86;100.00
14612;BME280;7392;52.078;11.650;2022-08-20T05:16:31;100655.81;;;18.86;100.00
14612;BME280;7392;52.078;11.650;2022-08-20T05:19:04;100664.72;;;18.88;100.00
14612;BME280;7392;52.078;11.650;2022-08-20T05:21:35;100660.19;;;18.89;100.00
14612;BME280;7392;52.078;11.650;2022-08-20T05:24:04;100661.09;;;18.90;100.00
14612;BME280;7392;52.078;11.650;2022-08-20T05:26:32;100661.03;;;18.91;100.00
14612;BME280;7392;52.078;11.650;2022-08-20T05:29:00;100663.72;;;18.91;100.00
14612;BME280;7392;52.078;11.650;2022-08-20T05:31:30;100668.97;;;18.94;100.00
14612;BME280;7392;52.078;11.650;2022-08-20T05:34:03;100668.03;;;18.95;100.00
14612;BME280;7392;52.078;11.650;2022-08-20T05:36:38;100670.63;;;18.98;100.00
14612;BME280;7392;52.078;11.650;2022-08-20T05:39:07;100664.19;;;19.02;100.00
14612;BME280;7392;52.078;11.650;2022-08-20T05:41:36;100671.22;;;19.06;100.00
14612;BME280;7392;52.078;11.650;2022-08-20T05:44:04;100676.47;;;19.10;100.00
14612;BME280;7392;52.078;11.650;2022-08-20T05:46:35;100675.41;;;19.14;100.00
14612;BME280;7392;52.078;11.650;2022-08-20T05:49:06;100681.56;;;19.17;100.00
14612;BME280;7392;52.078;11.650;2022-08-20T05:51:34;100671.59;;;19.19;100.00
14612;BME280;7392;52.078;11.650;2022-08-20T05:54:05;100678.63;;;19.23;100.00
14612;BME280;7392;52.078;11.650;2022-08-20T05:56:33;100682.09;;;19.27;100.00
14612;BME280;7392;52.078;11.650;2022-08-20T05:59:03;100681.06;;;19.30;100.00
14612;BME280;7392;52.078;11.650;2022-08-20T06:01:32;100690.84;;;19.32;100.00
14612;BME280;7392;52.078;11.650;2022-08-20T06:04:01;100689.78;;;19.36;100.00
14612;BME280;7392;52.078;11.650;2022-08-20T06:06:46;100681.59;;;19.39;100.00
14612;BME280;7392;52.078;11.650;2022-08-20T06:09:19;100694.94;;;19.42;100.00
14612;BME280;7392;52.078;11.650;2022-08-20T06:11:59;100693.06;;;19.44;100.00
14612;BME280;7392;52.078;11.650;2022-08-20T06:14:27;100707.25;;;19.48;100.00
14612;BME280;7392;52.078;11.650;2022-08-20T06:17:01;100695.41;;;19.52;100.00
14612;BME280;7392;52.078;11.650;2022-08-20T06:19:30;100698.97;;;19.54;100.00
14612;BME280;7392;52.078;11.650;2022-08-20T06:21:59;100702.41;;;19.58;100.00
14612;BME280;7392;52.078;11.650;2022-08-20T06:24:30;100698.69;;;19.60;100.00
14612;BME280;7392;52.078;11.650;2022-08-20T06:27:00;100703.03;;;19.65;100.00
14612;BME280;7392;52.078;11.650;2022-08-20T06:29:28;100708.25;;;19.68;100.00
14612;BME280;7392;52.078;11.650;2022-08-20T06:31:59;100718.06;;;19.70;100.00
14612;BME280;7392;52.078;11.650;2022-08-20T06:34:28;100720.63;;;19.73;100.00
14612;BME280;7392;52.078;11.650;2022-08-20T06:36:57;100721.34;;;19.78;100.00
14612;BME280;7392;52.078;11.650;2022-08-20T06:39:26;100719.41;;;19.82;100.00
14612;BME280;7392;52.078;11.650;2022-08-20T06:41:56;100729.03;;;19.88;100.00
14612;BME280;7392;52.078;11.650;2022-08-20T06:44:25;100722.59;;;19.92;100.00
14612;BME280;7392;52.078;11.650;2022-08-20T06:46:54;100725.03;;;19.98;100.00
14612;BME280;7392;52.078;11.650;2022-08-20T06:49:26;100722.09;;;20.04;100.00
14612;BME280;7392;52.078;11.650;2022-08-20T06:52:01;100737.94;;;20.12;100.00
14612;BME280;7392;52.078;11.650;2022-08-20T06:54:30;100740.38;;;20.18;100.00
14612;BME280;7392;52.078;11.650;2022-08-20T06:56:59;100733.84;;;20.24;100.00
14612;BME280;7392;52.078;11.650;2022-08-20T06:59:27;100733.53;;;20.31;100.00
14612;BME280;7392;52.078;11.650;2022-08-20T07:01:55;100733.25;;;20.37;100.00
14612;BME280;7392;52.078;11.650;2022-08-20T07:04:24;100730.34;;;20.42;100.00
14612;BME280;7392;52.078;11.650;2022-08-20T07:06:53;100732.00;;;20.46;100.00
14612;BME280;7392;52.078;11.650;2022-08-20T07:09:21;100729.00;;;20.52;100.00
14612;BME280;7392;52.078;11.650;2022-08-20T07:11:49;100730.53;;;20.58;100.00
14612;BME280;7392;52.078;11.650;2022-08-20T07:14:19;100730.19;;;20.67;100.00
14612;BME280;7392;52.078;11.650;2022-08-20T07:16:47;100735.16;;;20.77;100.00
14612;BME280;7392;52.078;11.650;2022-08-20T07:19:16;100736.44;;;20.88;100.00
14612;BME280;7392;52.078;11.650;2022-08-20T07:21:44;100740.47;;;20.99;100.00
14612;BME280;7392;52.078;11.650;2022-08-20T07:24:13;100749.09;;;21.07;100.00
14612;BME280;7392;52.078;11.650;2022-08-20T07:26:41;100740.78;;;21.11;100.00
14612;BME280;7392;52.078;11.650;2022-08-20T07:29:09;100741.47;;;21.17;100.00
14612;BME280;7392;52.078;11.650;2022-08-20T07:31:38;100747.44;;;21.23;100.00
14612;BME280;7392;52.078;11.650;2022-08-20T07:34:23;100753.34;;;21.32;100.00
14612;BME280;7392;52.078;11.650;2022-08-20T07:36:51;100753.06;;;21.38;100.00
14612;BME280;7392;52.078;11.650;2022-08-20T07:39:20;100752.88;;;21.42;100.00
14612;BME280;7392;52.078;11.650;2022-08-20T07:41:48;100758.06;;;21.47;100.00
14612;BME280;7392;52.078;11.650;2022-08-20T07:44:28;100760.63;;;21.50;100.00
14612;BME280;7392;52.078;11.650;2022-08-20T07:46:58;100756.28;;;21.46;100.00
14612;BME280;7392;52.078;11.650;2022-08-20T07:49:26;100761.16;;;21.38;100.00
14612;BME280;7392;52.078;11.650;2022-08-20T07:51:54;100764.00;;;21.35;100.00
14612;BME280;7392;52.078;11.650;2022-08-20T07:54:22;100760.59;;;21.31;100.00
14612;BME280;7392;52.078;11.650;2022-08-20T07:56:50;100766.06;;;21.29;100.00
14612;BME280;7392;52.078;11.650;2022-08-20T07:59:18;100771.44;;;21.29;100.00
14612;BME280;7392;52.078;11.650;2022-08-20T08:01:46;100765.13;;;21.30;100.00
14612;BME280;7392;52.078;11.650;2022-08-20T08:04:16;100765.97;;;21.31;100.00
14612;BME280;7392;52.078;11.650;2022-08-20T08:06:43;100774.94;;;21.32;100.00
14612;BME280;7392;52.078;11.650;2022-08-20T08:09:13;100769.66;;;21.30;100.00
14612;BME280;7392;52.078;11.650;2022-08-20T08:11:44;100776.84;;;21.29;100.00
14612;BME280;7392;52.078;11.650;2022-08-20T08:14:19;100773.16;;;21.32;100.00
14612;BME280;7392;52.078;11.650;2022-08-20T08:16:49;100767.69;;;21.34;100.00
14612;BME280;7392;52.078;11.650;2022-08-20T08:19:19;100773.00;;;21.35;100.00
14612;BME280;7392;52.078;11.650;2022-08-20T08:21:47;100763.94;;;21.36;100.00
14612;BME280;7392;52.078;11.650;2022-08-20T08:24:15;100775.47;;;21.40;100.00
14612;BME280;7392;52.078;11.650;2022-08-20T08:26:48;100763.66;;;21.42;100.00
14612;BME280;7392;52.078;11.650;2022-08-20T08:29:16;100773.44;;;21.45;100.00
14612;BME280;7392;52.078;11.650;2022-08-20T08:31:44;100781.50;;;21.46;99.79
14612;BME280;7392;52.078;11.650;2022-08-20T08:34:13;100776.09;;;21.46;98.55
14612;BME280;7392;52.078;11.650;2022-08-20T08:36:52;100778.72;;;21.48;97.98
14612;BME280;7392;52.078;11.650;2022-08-20T08:39:21;100774.13;;;21.50;98.58
14612;BME280;7392;52.078;11.650;2022-08-20T08:41:50;100770.34;;;21.54;99.06
14612;BME280;7392;52.078;11.650;2022-08-20T08:44:23;100775.50;;;21.59;99.17
14612;BME280;7392;52.078;11.650;2022-08-20T08:46:54;100770.84;;;21.62;97.64
14612;BME280;7392;52.078;11.650;2022-08-20T08:49:26;100778.72;;;21.67;97.60
14612;BME280;7392;52.078;11.650;2022-08-20T08:52:08;100780.34;;;21.71;97.16
14612;BME280;7392;52.078;11.650;2022-08-20T08:54:43;100772.97;;;21.75;97.02
14612;BME280;7392;52.078;11.650;2022-08-20T08:57:12;100775.34;;;21.81;96.31
14612;BME280;7392;52.078;11.650;2022-08-20T08:59:42;100784.03;;;21.88;95.71
14612;BME280;7392;52.078;11.650;2022-08-20T09:02:29;100776.38;;;21.97;96.19
14612;BME280;7392;52.078;11.650;2022-08-20T09:05:00;100782.13;;;22.09;96.03
14612;BME280;7392;52.078;11.650;2022-08-20T09:07:32;100792.56;;;22.16;94.66
14612;BME280;7392;52.078;11.650;2022-08-20T09:10:00;100781.44;;;22.22;92.14
14612;BME280;7392;52.078;11.650;2022-08-20T09:12:28;100789.47;;;22.24;88.30
14612;BME280;7392;52.078;11.650;2022-08-20T09:14:56;100794.59;;;22.30;87.29
14612;BME280;7392;52.078;11.650;2022-08-20T09:17:24;100794.22;;;22.38;87.87
14612;BME280;7392;52.078;11.650;2022-08-20T09:19:52;100791.19;;;22.44;86.93
14612;BME280;7392;52.078;11.650;2022-08-20T09:22:22;100789.13;;;22.49;86.84
14612;BME280;7392;52.078;11.650;2022-08-20T09:24:52;100796.28;;;22.50;85.08
14612;BME280;7392;52.078;11.650;2022-08-20T09:27:21;100791.75;;;22.51;84.67
14612;BME280;7392;52.078;11.650;2022-08-20T09:29:49;100794.22;;;22.55;85.20
14612;BME280;7392;52.078;11.650;2022-08-20T09:32:21;100793.94;;;22.62;85.37
14612;BME280;7392;52.078;11.650;2022-08-20T09:34:53;100796.44;;;22.65;84.39
14612;BME280;7392;52.078;11.650;2022-08-20T09:37:23;100807.81;;;22.71;84.76
14612;BME280;7392;52.078;11.650;2022-08-20T09:39:53;100794.94;;;22.76;84.99
14612;BME280;7392;52.078;11.650;2022-08-20T09:42:23;100795.50;;;22.83;85.19
14612;BME280;7392;52.078;11.650;2022-08-20T09:44:51;100801.38;;;22.91;84.86
14612;BME280;7392;52.078;11.650;2022-08-20T09:47:19;100801.84;;;23.00;84.47
14612;BME280;7392;52.078;11.650;2022-08-20T09:49:48;100805.16;;;23.06;83.46
14612;BME280;7392;52.078;11.650;2022-08-20T09:52:21;100800.97;;;23.17;83.00
14612;BME280;7392;52.078;11.650;2022-08-20T09:54:54;100792.19;;;23.29;83.21
14612;BME280;7392;52.078;11.650;2022-08-20T09:57:24;100786.00;;;23.43;82.95
14612;BME280;7392;52.078;11.650;2022-08-20T09:59:54;100788.72;;;23.59;82.73
14612;BME280;7392;52.078;11.650;2022-08-20T10:02:23;100797.84;;;23.74;82.65
14612;BME280;7392;52.078;11.650;2022-08-20T10:04:51;100799.09;;;23.84;82.05
14612;BME280;7392;52.078;11.650;2022-08-20T10:07:19;100798.47;;;23.95;81.19
14612;BME280;7392;52.078;11.650;2022-08-20T10:09:47;100795.34;;;24.02;79.85
14612;BME280;7392;52.078;11.650;2022-08-20T10:12:16;100796.72;;;24.09;79.09
14612;BME280;7392;52.078;11.650;2022-08-20T10:14:44;100792.59;;;24.18;78.42
14612;BME280;7392;52.078;11.650;2022-08-20T10:17:12;100790.06;;;24.31;78.10
14612;BME280;7392;52.078;11.650;2022-08-20T10:19:41;100802.09;;;24.41;76.69
14612;BME280;7392;52.078;11.650;2022-08-20T10:22:09;100795.06;;;24.53;76.70
14612;BME280;7392;52.078;11.650;2022-08-20T10:24:37;100799.88;;;24.64;75.80
14612;BME280;7392;52.078;11.650;2022-08-20T10:27:05;100803.00;;;24.72;75.53
14612;BME280;7392;52.078;11.650;2022-08-20T10:29:35;100798.09;;;24.79;75.26
14612;BME280;7392;52.078;11.650;2022-08-20T10:32:09;100794.97;;;24.85;75.89
14612;BME280;7392;52.078;11.650;2022-08-20T10:34:39;100810.81;;;24.93;76.17
14612;BME280;7392;52.078;11.650;2022-08-20T10:37:07;100805.56;;;24.90;73.31
14612;BME280;7392;52.078;11.650;2022-08-20T10:39:35;100803.63;;;24.92;73.28
14612;BME280;7392;52.078;11.650;2022-08-20T10:42:03;100803.53;;;24.93;73.18
14612;BME280;7392;52.078;11.650;2022-08-20T10:44:31;100810.63;;;24.96;73.25
14612;BME280;7392;52.078;11.650;2022-08-20T10:47:12;100805.97;;;24.98;72.61
14612;BME280;7392;52.078;11.650;2022-08-20T10:49:40;100802.09;;;25.02;73.09
14612;BME280;7392;52.078;11.650;2022-08-20T10:52:07;100805.47;;;25.06;73.24
14612;BME280;7392;52.078;11.650;2022-08-20T10:54:35;100807.06;;;25.10;73.65
14612;BME280;7392;52.078;11.650;2022-08-20T10:57:08;100800.47;;;25.14;73.50
14612;BME280;7392;52.078;11.650;2022-08-20T10:59:37;100801.03;;;25.19;73.79
14612;BME280;7392;52.078;11.650;2022-08-20T11:02:07;100799.00;;;25.23;73.03
14612;BME280;7392;52.078;11.650;2022-08-20T11:04:35;100800.94;;;25.20;71.64
14612;BME280;7392;52.078;11.650;2022-08-20T11:07:11;100803.66;;;25.20;71.08
14612;BME280;7392;52.078;11.650;2022-08-20T11:09:39;100797.84;;;25.12;70.21
14612;BME280;7392;52.078;11.650;2022-08-20T11:12:08;100792.63;;;25.09;70.44
14612;BME280;7392;52.078;11.650;2022-08-20T11:14:35;100793.38;;;25.11;70.86
14612;BME280;7392;52.078;11.650;2022-08-20T11:17:04;100798.06;;;25.09;70.85
14612;BME280;7392;52.078;11.650;2022-08-20T11:19:38;100805.22;;;25.10;70.49
14612;BME280;7392;52.078;11.650;2022-08-20T11:22:06;100802.97;;;25.02;69.91
14612;BME280;7392;52.078;11.650;2022-08-20T11:24:35;100805.19;;;24.96;68.99
14612;BME280;7392;52.078;11.650;2022-08-20T11:27:04;100803.34;;;24.82;68.65
14612;BME280;7392;52.078;11.650;2022-08-20T11:29:34;100812.72;;;24.76;69.23
14612;BME280;7392;52.078;11.650;2022-08-20T11:32:03;100814.13;;;24.68;69.91
14612;BME280;7392;52.078;11.650;2022-08-20T11:34:33;100803.84;;;24.58;72.54
14612;BME280;7392;52.078;11.650;2022-08-20T11:37:01;100817.13;;;24.47;73.80
14612;BME280;7392;52.078;11.650;2022-08-20T11:39:29;100806.25;;;24.33;75.22
14612;BME280;7392;52.078;11.650;2022-08-20T11:41:57;100795.91;;;24.23;76.88
14612;BME280;7392;52.078;11.650;2022-08-20T11:44:25;100807.16;;;24.17;78.87
14612;BME280;7392;52.078;11.650;2022-08-20T11:46:53;100802.94;;;24.12;80.26
14612;BME280;7392;52.078;11.650;2022-08-20T11:49:23;100806.09;;;24.04;80.52
14612;BME280;7392;52.078;11.650;2022-08-20T11:51:52;100802.78;;;23.99;80.77
14612;BME280;7392;52.078;11.650;2022-08-20T11:54:20;100804.63;;;23.98;81.10
14612;BME280;7392;52.078;11.650;2022-08-20T11:56:48;100804.72;;;23.97;81.05
14612;BME280;7392;52.078;11.650;2022-08-20T11:59:16;100806.59;;;23.95;80.87
14612;BME280;7392;52.078;11.650;2022-08-20T12:01:44;100807.59;;;23.94;80.78
14612;BME280;7392;52.078;11.650;2022-08-20T12:04:33;100808.38;;;23.96;80.39
14612;BME280;7392;52.078;11.650;2022-08-20T12:07:12;100809.16;;;23.98;79.47
14612;BME280;7392;52.078;11.650;2022-08-20T12:09:41;100815.63;;;23.95;78.67
14612;BME280;7392;52.078;11.650;2022-08-20T12:12:18;100817.38;;;23.96;78.58
14612;BME280;7392;52.078;11.650;2022-08-20T12:14:47;100823.00;;;23.93;77.58
14612;BME280;7392;52.078;11.650;2022-08-20T12:17:17;100813.44;;;23.86;77.46
14612;BME280;7392;52.078;11.650;2022-08-20T12:19:46;100822.84;;;23.79;76.61
14612;BME280;7392;52.078;11.650;2022-08-20T12:22:16;100818.56;;;23.75;75.79
14612;BME280;7392;52.078;11.650;2022-08-20T12:24:51;100827.81;;;23.70;74.62
14612;BME280;7392;52.078;11.650;2022-08-20T12:27:21;100820.22;;;23.61;74.03
14612;BME280;7392;52.078;11.650;2022-08-20T12:29:50;100827.97;;;23.51;74.00
14612;BME280;7392;52.078;11.650;2022-08-20T12:32:19;100827.19;;;23.49;75.15
14612;BME280;7392;52.078;11.650;2022-08-20T12:34:47;100829.53;;;23.40;73.98
14612;BME280;7392;52.078;11.650;2022-08-20T12:37:18;100828.91;;;23.34;74.81
14612;BME280;7392;52.078;11.650;2022-08-20T12:39:48;100827.16;;;23.33;75.67
14612;BME280;7392;52.078;11.650;2022-08-20T12:42:17;100829.06;;;23.31;76.31
14612;BME280;7392;52.078;11.650;2022-08-20T12:44:45;100833.53;;;23.32;77.07
14612;BME280;7392;52.078;11.650;2022-08-20T12:47:16;100828.03;;;23.34;76.94
14612;BME280;7392;52.078;11.650;2022-08-20T12:49:46;100828.81;;;23.36;77.26
14612;BME280;7392;52.078;11.650;2022-08-20T12:52:17;100822.28;;;23.40;77.02
14612;BME280;7392;52.078;11.650;2022-08-20T12:54:45;100821.84;;;23.48;77.25
14612;BME280;7392;52.078;11.650;2022-08-20T12:57:14;100813.41;;;23.54;77.95
14612;BME280;7392;52.078;11.650;2022-08-20T12:59:42;100827.38;;;23.62;77.68